sensor_id;sensor_type;location;lat;lon;timestamp;P1;durP1;ratioP1;P2;durP2;ratioP2
68310;SDS011;55157;51.036;17.058;2023-02-28T00:02:00;76.25;;;31.10;;
68310;SDS011;55157;51.036;17.058;2023-02-28T00:04:26;76.40;;;31.42;;
68310;SDS011;55157;51.036;17.058;2023-02-28T00:06:51;71.22;;;30.45;;
68310;SDS011;55157;51.036;17.058;2023-02-28T00:09:16;72.97;;;32.60;;
68310;SDS011;55157;51.036;17.058;2023-02-28T00:11:43;66.30;;;30.13;;
68310;SDS011;55157;51.036;17.058;2023-02-28T00:14:10;69.93;;;30.48;;
68310;SDS011;55157;51.036;17.058;2023-02-28T00:16:35;77.50;;;31.30;;
68310;SDS011;55157;51.036;17.058;2023-02-28T00:19:00;69.28;;;31.38;;
68310;SDS011;55157;51.036;17.058;2023-02-28T00:21:26;69.57;;;31.30;;
68310;SDS011;55157;51.036;17.058;2023-02-28T00:23:51;70.47;;;30.25;;
68310;SDS011;55157;51.036;17.058;2023-02-28T00:26:16;64.70;;;29.75;;
68310;SDS011;55157;51.036;17.058;2023-02-28T00:28:42;70.97;;;30.42;;
68310;SDS011;55157;51.036;17.058;2023-02-28T00:31:09;61.25;;;28.17;;
68310;SDS011;55157;51.036;17.058;2023-02-28T00:33:34;63.53;;;28.75;;
68310;SDS011;55157;51.036;17.058;2023-02-28T00:36:03;66.03;;;30.92;;
68310;SDS011;55157;51.036;17.058;2023-02-28T00:38:28;63.20;;;30.77;;
68310;SDS011;55157;51.036;17.058;2023-02-28T00:40:53;72.13;;;32.15;;
68310;SDS011;55157;51.036;17.058;2023-02-28T00:43:19;81.00;;;35.00;;
68310;SDS011;55157;51.036;17.058;2023-02-28T00:45:44;84.38;;;35.35;;
68310;SDS011;55157;51.036;17.058;2023-02-28T00:48:11;74.40;;;32.78;;
68310;SDS011;55157;51.036;17.058;2023-02-28T00:50:36;76.15;;;31.85;;
68310;SDS011;55157;51.036;17.058;2023-02-28T00:53:01;67.10;;;29.05;;
68310;SDS011;55157;51.036;17.058;2023-02-28T00:55:27;67.03;;;28.40;;
68310;SDS011;55157;51.036;17.058;2023-02-28T00:57:52;56.63;;;25.52;;
68310;SDS011;55157;51.036;17.058;2023-02-28T01:00:17;64.05;;;26.58;;
68310;SDS011;55157;51.036;17.058;2023-02-28T01:02:43;57.20;;;26.55;;
68310;SDS011;55157;51.036;17.058;2023-02-28T01:05:09;63.00;;;27.08;;
68310;SDS011;55157;51.036;17.058;2023-02-28T01:07:35;50.80;;;23.40;;
68310;SDS011;55157;51.036;17.058;2023-02-28T01:10:00;51.83;;;23.40;;
68310;SDS011;55157;51.036;17.058;2023-02-28T01:12:25;48.53;;;23.48;;
68310;SDS011;55157;51.036;17.058;2023-02-28T01:14:51;53.08;;;22.60;;
68310;SDS011;55157;51.036;17.058;2023-02-28T01:17:16;51.60;;;21.40;;
68310;SDS011;55157;51.036;17.058;2023-02-28T01:19:41;48.70;;;22.65;;
68310;SDS011;55157;51.036;17.058;2023-02-28T01:22:08;53.78;;;24.05;;
68310;SDS011;55157;51.036;17.058;2023-02-28T01:24:33;50.10;;;23.50;;
68310;SDS011;55157;51.036;17.058;2023-02-28T01:26:58;56.25;;;23.10;;
68310;SDS011;55157;51.036;17.058;2023-02-28T01:29:24;51.03;;;21.45;;
68310;SDS011;55157;51.036;17.058;2023-02-28T01:31:49;51.33;;;22.17;;
68310;SDS011;55157;51.036;17.058;2023-02-28T01:34:14;52.17;;;21.95;;
68310;SDS011;55157;51.036;17.058;2023-02-28T01:36:39;47.05;;;19.80;;
68310;SDS011;55157;51.036;17.058;2023-02-28T01:39:06;51.20;;;20.63;;
68310;SDS011;55157;51.036;17.058;2023-02-28T01:41:33;42.85;;;19.83;;
68310;SDS011;55157;51.036;17.058;2023-02-28T01:44:00;42.90;;;20.02;;
68310;SDS011;55157;51.036;17.058;2023-02-28T01:46:25;45.40;;;20.27;;
68310;SDS011;55157;51.036;17.058;2023-02-28T01:48:51;44.33;;;20.20;;
68310;SDS011;55157;51.036;17.058;2023-02-28T01:51:18;44.30;;;21.58;;
68310;SDS011;55157;51.036;17.058;2023-02-28T01:53:46;44.28;;;19.98;;
68310;SDS011;55157;51.036;17.058;2023-02-28T01:56:14;40.90;;;20.00;;
68310;SDS011;55157;51.036;17.058;2023-02-28T01:58:41;47.42;;;20.15;;
68310;SDS011;55157;51.036;17.058;2023-02-28T02:01:06;39.97;;;18.75;;
68310;SDS011;55157;51.036;17.058;2023-02-28T02:03:32;43.38;;;19.77;;
68310;SDS011;55157;51.036;17.058;2023-02-28T02:05:57;40.47;;;19.35;;
68310;SDS011;55157;51.036;17.058;2023-02-28T02:08:23;42.78;;;19.33;;
68310;SDS011;55157;51.036;17.058;2023-02-28T02:10:49;46.40;;;20.38;;
68310;SDS011;55157;51.036;17.058;2023-02-28T02:13:21;45.78;;;22.40;;
68310;SDS011;55157;51.036;17.058;2023-02-28T02:15:54;46.80;;;20.45;;
68310;SDS011;55157;51.036;17.058;2023-02-28T02:18:23;41.75;;;20.52;;
68310;SDS011;55157;51.036;17.058;2023-02-28T02:23:48;43.50;;;19.25;;
68310;SDS011;55157;51.036;17.058;2023-02-28T02:26:30;44.92;;;21.88;;
68310;SDS011;55157;51.036;17.058;2023-02-28T02:34:55;43.90;;;21.60;;
68310;SDS011;55157;51.036;17.058;2023-02-28T02:37:24;44.80;;;21.13;;
68310;SDS011;55157;51.036;17.058;2023-02-28T02:39:52;47.67;;;22.05;;
68310;SDS011;55157;51.036;17.058;2023-02-28T02:42:20;42.60;;;21.55;;
68310;SDS011;55157;51.036;17.058;2023-02-28T02:44:47;46.50;;;22.67;;
68310;SDS011;55157;51.036;17.058;2023-02-28T02:47:14;46.63;;;22.20;;
68310;SDS011;55157;51.036;17.058;2023-02-28T02:49:41;46.05;;;21.65;;
68310;SDS011;55157;51.036;17.058;2023-02-28T02:52:09;49.63;;;22.60;;
68310;SDS011;55157;51.036;17.058;2023-02-28T02:54:37;49.13;;;23.02;;
68310;SDS011;55157;51.036;17.058;2023-02-28T02:57:04;44.92;;;21.15;;
68310;SDS011;55157;51.036;17.058;2023-02-28T02:59:30;44.33;;;21.08;;
68310;SDS011;55157;51.036;17.058;2023-02-28T03:01:56;50.25;;;23.40;;
68310;SDS011;55157;51.036;17.058;2023-02-28T03:04:23;41.38;;;20.75;;
68310;SDS011;55157;51.036;17.058;2023-02-28T03:06:50;46.40;;;21.08;;
68310;SDS011;55157;51.036;17.058;2023-02-28T03:09:17;47.70;;;22.17;;
68310;SDS011;55157;51.036;17.058;2023-02-28T03:11:42;52.13;;;23.25;;
68310;SDS011;55157;51.036;17.058;2023-02-28T03:14:15;44.15;;;21.73;;
68310;SDS011;55157;51.036;17.058;2023-02-28T03:16:58;50.97;;;22.15;;
68310;SDS011;55157;51.036;17.058;2023-02-28T03:19:28;49.20;;;23.60;;
68310;SDS011;55157;51.036;17.058;2023-02-28T03:22:00;50.60;;;22.27;;
68310;SDS011;55157;51.036;17.058;2023-02-28T03:24:31;47.17;;;23.27;;
68310;SDS011;55157;51.036;17.058;2023-02-28T03:26:58;47.13;;;23.20;;
68310;SDS011;55157;51.036;17.058;2023-02-28T03:29:31;44.60;;;23.00;;
68310;SDS011;55157;51.036;17.058;2023-02-28T03:31:58;51.03;;;23.85;;
68310;SDS011;55157;51.036;17.058;2023-02-28T03:34:25;50.95;;;24.15;;
68310;SDS011;55157;51.036;17.058;2023-02-28T03:36:56;47.83;;;22.58;;
68310;SDS011;55157;51.036;17.058;2023-02-28T03:39:23;48.13;;;23.13;;
68310;SDS011;55157;51.036;17.058;2023-02-28T03:41:51;48.08;;;24.00;;
68310;SDS011;55157;51.036;17.058;2023-02-28T03:44:18;61.83;;;28.13;;
68310;SDS011;55157;51.036;17.058;2023-02-28T03:46:45;50.72;;;24.75;;
68310;SDS011;55157;51.036;17.058;2023-02-28T03:49:13;48.88;;;22.35;;
68310;SDS011;55157;51.036;17.058;2023-02-28T03:51:41;60.60;;;24.30;;
68310;SDS011;55157;51.036;17.058;2023-02-28T03:54:08;49.60;;;23.02;;
68310;SDS011;55157;51.036;17.058;2023-02-28T03:56:37;49.00;;;23.90;;
68310;SDS011;55157;51.036;17.058;2023-02-28T03:59:04;41.08;;;21.75;;
68310;SDS011;55157;51.036;17.058;2023-02-28T04:01:31;42.40;;;21.25;;
68310;SDS011;55157;51.036;17.058;2023-02-28T04:03:58;50.47;;;22.08;;
68310;SDS011;55157;51.036;17.058;2023-02-28T04:06:23;43.75;;;21.27;;
68310;SDS011;55157;51.036;17.058;2023-02-28T04:08:49;41.25;;;19.92;;
68310;SDS011;55157;51.036;17.058;2023-02-28T04:11:22;48.38;;;22.15;;
68310;SDS011;55157;51.036;17.058;2023-02-28T04:13:47;42.85;;;19.85;;
68310;SDS011;55157;51.036;17.058;2023-02-28T04:16:16;48.72;;;22.83;;
68310;SDS011;55157;51.036;17.058;2023-02-28T04:18:42;31.88;;;17.50;;
68310;SDS011;55157;51.036;17.058;2023-02-28T04:21:07;38.17;;;18.35;;
68310;SDS011;55157;51.036;17.058;2023-02-28T04:23:32;34.97;;;17.92;;
68310;SDS011;55157;51.036;17.058;2023-02-28T04:25:58;36.45;;;19.05;;
68310;SDS011;55157;51.036;17.058;2023-02-28T04:28:23;36.13;;;18.95;;
68310;SDS011;55157;51.036;17.058;2023-02-28T04:30:53;33.83;;;16.70;;
68310;SDS011;55157;51.036;17.058;2023-02-28T04:33:20;30.83;;;15.10;;
68310;SDS011;55157;51.036;17.058;2023-02-28T04:35:45;33.63;;;15.57;;
68310;SDS011;55157;51.036;17.058;2023-02-28T04:38:10;33.70;;;16.02;;
68310;SDS011;55157;51.036;17.058;2023-02-28T04:40:36;35.65;;;16.30;;
68310;SDS011;55157;51.036;17.058;2023-02-28T04:43:01;28.40;;;16.38;;
68310;SDS011;55157;51.036;17.058;2023-02-28T04:45:26;32.17;;;15.80;;
68310;SDS011;55157;51.036;17.058;2023-02-28T04:47:51;31.45;;;15.82;;
68310;SDS011;55157;51.036;17.058;2023-02-28T04:50:18;34.15;;;16.13;;
68310;SDS011;55157;51.036;17.058;2023-02-28T04:52:43;36.28;;;16.73;;
68310;SDS011;55157;51.036;17.058;2023-02-28T04:55:09;35.80;;;17.75;;
68310;SDS011;55157;51.036;17.058;2023-02-28T04:57:34;33.70;;;16.75;;
68310;SDS011;55157;51.036;17.058;2023-02-28T05:00:00;35.58;;;16.88;;
68310;SDS011;55157;51.036;17.058;2023-02-28T05:02:25;36.30;;;17.73;;
68310;SDS011;55157;51.036;17.058;2023-02-28T05:04:50;33.53;;;17.45;;
68310;SDS011;55157;51.036;17.058;2023-02-28T05:07:17;34.13;;;17.92;;
68310;SDS011;55157;51.036;17.058;2023-02-28T05:09:43;30.95;;;17.10;;
68310;SDS011;55157;51.036;17.058;2023-02-28T05:12:08;37.17;;;17.70;;
68310;SDS011;55157;51.036;17.058;2023-02-28T05:14:33;41.35;;;18.90;;
68310;SDS011;55157;51.036;17.058;2023-02-28T05:16:59;38.83;;;18.25;;
68310;SDS011;55157;51.036;17.058;2023-02-28T05:19:24;39.90;;;18.17;;
68310;SDS011;55157;51.036;17.058;2023-02-28T05:21:50;40.50;;;18.58;;
68310;SDS011;55157;51.036;17.058;2023-02-28T05:24:17;44.20;;;21.25;;
68310;SDS011;55157;51.036;17.058;2023-02-28T05:26:42;48.42;;;20.95;;
68310;SDS011;55157;51.036;17.058;2023-02-28T05:29:07;38.28;;;19.60;;
68310;SDS011;55157;51.036;17.058;2023-02-28T05:31:33;41.20;;;19.45;;
68310;SDS011;55157;51.036;17.058;2023-02-28T05:33:58;45.25;;;20.55;;
68310;SDS011;55157;51.036;17.058;2023-02-28T05:36:24;42.53;;;21.02;;
68310;SDS011;55157;51.036;17.058;2023-02-28T05:38:49;55.80;;;22.55;;
68310;SDS011;55157;51.036;17.058;2023-02-28T05:41:16;43.85;;;21.42;;
68310;SDS011;55157;51.036;17.058;2023-02-28T05:43:42;43.45;;;21.05;;
68310;SDS011;55157;51.036;17.058;2023-02-28T05:46:08;43.78;;;22.17;;
68310;SDS011;55157;51.036;17.058;2023-02-28T05:48:34;45.03;;;20.90;;
68310;SDS011;55157;51.036;17.058;2023-02-28T05:51:00;43.95;;;22.30;;
68310;SDS011;55157;51.036;17.058;2023-02-28T05:53:25;48.30;;;23.40;;
68310;SDS011;55157;51.036;17.058;2023-02-28T05:55:50;59.25;;;24.75;;
68310;SDS011;55157;51.036;17.058;2023-02-28T05:58:17;89.50;;;27.00;;
68310;SDS011;55157;51.036;17.058;2023-02-28T06:00:42;85.00;;;29.73;;
68310;SDS011;55157;51.036;17.058;2023-02-28T06:03:08;58.88;;;28.65;;
68310;SDS011;55157;51.036;17.058;2023-02-28T06:05:33;61.65;;;28.00;;
68310;SDS011;55157;51.036;17.058;2023-02-28T06:07:58;61.38;;;28.25;;
68310;SDS011;55157;51.036;17.058;2023-02-28T06:10:23;61.08;;;29.08;;
68310;SDS011;55157;51.036;17.058;2023-02-28T06:12:49;60.72;;;27.00;;
68310;SDS011;55157;51.036;17.058;2023-02-28T06:15:15;64.50;;;30.38;;
68310;SDS011;55157;51.036;17.058;2023-02-28T06:17:41;61.97;;;27.73;;
68310;SDS011;55157;51.036;17.058;2023-02-28T06:20:07;65.68;;;31.98;;
68310;SDS011;55157;51.036;17.058;2023-02-28T06:22:32;85.97;;;39.30;;
68310;SDS011;55157;51.036;17.058;2023-02-28T06:24:58;71.65;;;30.95;;
68310;SDS011;55157;51.036;17.058;2023-02-28T06:27:23;47.65;;;23.35;;
68310;SDS011;55157;51.036;17.058;2023-02-28T06:29:48;58.47;;;26.77;;
68310;SDS011;55157;51.036;17.058;2023-02-28T06:32:15;54.38;;;24.83;;
68310;SDS011;55157;51.036;17.058;2023-02-28T06:34:40;56.58;;;25.83;;
68310;SDS011;55157;51.036;17.058;2023-02-28T06:37:05;48.63;;;24.27;;
68310;SDS011;55157;51.036;17.058;2023-02-28T06:39:31;49.88;;;22.73;;
68310;SDS011;55157;51.036;17.058;2023-02-28T06:41:56;48.85;;;24.45;;
68310;SDS011;55157;51.036;17.058;2023-02-28T06:44:22;45.63;;;20.13;;
68310;SDS011;55157;51.036;17.058;2023-02-28T06:46:47;46.47;;;22.80;;
68310;SDS011;55157;51.036;17.058;2023-02-28T06:49:14;58.20;;;24.02;;
68310;SDS011;55157;51.036;17.058;2023-02-28T06:51:40;39.63;;;19.15;;
68310;SDS011;55157;51.036;17.058;2023-02-28T06:54:06;34.75;;;17.80;;
68310;SDS011;55157;51.036;17.058;2023-02-28T06:56:31;34.97;;;17.70;;
68310;SDS011;55157;51.036;17.058;2023-02-28T06:58:56;29.70;;;16.58;;
68310;SDS011;55157;51.036;17.058;2023-02-28T07:01:21;36.97;;;16.60;;
68310;SDS011;55157;51.036;17.058;2023-02-28T07:03:47;27.55;;;13.50;;
68310;SDS011;55157;51.036;17.058;2023-02-28T07:06:13;23.35;;;12.82;;
68310;SDS011;55157;51.036;17.058;2023-02-28T07:08:38;18.40;;;10.43;;
68310;SDS011;55157;51.036;17.058;2023-02-28T07:11:04;21.85;;;11.02;;
68310;SDS011;55157;51.036;17.058;2023-02-28T07:13:29;16.90;;;9.93;;
68310;SDS011;55157;51.036;17.058;2023-02-28T07:15:55;21.65;;;9.57;;
68310;SDS011;55157;51.036;17.058;2023-02-28T07:18:21;28.13;;;10.48;;
68310;SDS011;55157;51.036;17.058;2023-02-28T07:20:46;21.52;;;10.18;;
68310;SDS011;55157;51.036;17.058;2023-02-28T07:23:13;17.60;;;9.80;;
68310;SDS011;55157;51.036;17.058;2023-02-28T07:25:38;17.25;;;10.50;;
68310;SDS011;55157;51.036;17.058;2023-02-28T07:28:03;23.70;;;11.60;;
68310;SDS011;55157;51.036;17.058;2023-02-28T07:30:28;29.00;;;15.90;;
68310;SDS011;55157;51.036;17.058;2023-02-28T07:32:54;38.88;;;15.93;;
68310;SDS011;55157;51.036;17.058;2023-02-28T07:35:19;26.38;;;14.20;;
68310;SDS011;55157;51.036;17.058;2023-02-28T07:37:44;21.23;;;11.45;;
68310;SDS011;55157;51.036;17.058;2023-02-28T07:40:12;20.55;;;11.85;;
68310;SDS011;55157;51.036;17.058;2023-02-28T07:42:37;22.70;;;12.77;;
68310;SDS011;55157;51.036;17.058;2023-02-28T07:45:03;29.05;;;13.50;;
68310;SDS011;55157;51.036;17.058;2023-02-28T07:47:28;21.38;;;12.52;;
68310;SDS011;55157;51.036;17.058;2023-02-28T07:49:54;24.58;;;12.02;;
68310;SDS011;55157;51.036;17.058;2023-02-28T07:52:19;25.50;;;10.35;;
68310;SDS011;55157;51.036;17.058;2023-02-28T07:54:44;16.65;;;9.82;;
68310;SDS011;55157;51.036;17.058;2023-02-28T07:57:11;17.83;;;10.02;;
68310;SDS011;55157;51.036;17.058;2023-02-28T07:59:36;16.35;;;10.13;;
68310;SDS011;55157;51.036;17.058;2023-02-28T08:02:01;18.60;;;11.25;;
68310;SDS011;55157;51.036;17.058;2023-02-28T08:04:27;24.20;;;11.98;;
68310;SDS011;55157;51.036;17.058;2023-02-28T08:06:52;15.30;;;10.52;;
68310;SDS011;55157;51.036;17.058;2023-02-28T08:09:17;15.57;;;9.68;;
68310;SDS011;55157;51.036;17.058;2023-02-28T08:11:42;20.63;;;12.48;;
68310;SDS011;55157;51.036;17.058;2023-02-28T08:14:09;18.08;;;10.32;;
68310;SDS011;55157;51.036;17.058;2023-02-28T08:16:34;12.02;;;8.23;;
68310;SDS011;55157;51.036;17.058;2023-02-28T08:18:59;14.43;;;9.40;;
68310;SDS011;55157;51.036;17.058;2023-02-28T08:21:25;18.00;;;7.88;;
68310;SDS011;55157;51.036;17.058;2023-02-28T08:23:50;14.35;;;8.25;;
68310;SDS011;55157;51.036;17.058;2023-02-28T08:26:15;15.77;;;7.90;;
68310;SDS011;55157;51.036;17.058;2023-02-28T08:28:41;12.50;;;7.25;;
68310;SDS011;55157;51.036;17.058;2023-02-28T08:31:08;10.27;;;7.53;;
68310;SDS011;55157;51.036;17.058;2023-02-28T08:33:34;12.02;;;7.10;;
68310;SDS011;55157;51.036;17.058;2023-02-28T08:35:59;10.43;;;6.70;;
68310;SDS011;55157;51.036;17.058;2023-02-28T08:38:24;11.43;;;8.10;;
68310;SDS011;55157;51.036;17.058;2023-02-28T08:40:49;15.10;;;8.75;;
68310;SDS011;55157;51.036;17.058;2023-02-28T08:43:15;16.40;;;8.90;;
68310;SDS011;55157;51.036;17.058;2023-02-28T08:45:40;13.98;;;8.98;;
68310;SDS011;55157;51.036;17.058;2023-02-28T08:48:07;12.50;;;8.50;;
68310;SDS011;55157;51.036;17.058;2023-02-28T08:50:32;28.25;;;15.95;;
68310;SDS011;55157;51.036;17.058;2023-02-28T08:52:57;16.92;;;10.13;;
68310;SDS011;55157;51.036;17.058;2023-02-28T08:55:22;18.55;;;10.50;;
68310;SDS011;55157;51.036;17.058;2023-02-28T08:57:48;16.25;;;10.00;;
68310;SDS011;55157;51.036;17.058;2023-02-28T09:00:13;15.82;;;10.10;;
68310;SDS011;55157;51.036;17.058;2023-02-28T09:02:38;20.05;;;10.13;;
68310;SDS011;55157;51.036;17.058;2023-02-28T09:05:06;18.00;;;8.75;;
68310;SDS011;55157;51.036;17.058;2023-02-28T09:07:31;14.50;;;9.52;;
68310;SDS011;55157;51.036;17.058;2023-02-28T09:09:56;17.35;;;9.05;;
68310;SDS011;55157;51.036;17.058;2023-02-28T09:12:21;15.93;;;9.63;;
68310;SDS011;55157;51.036;17.058;2023-02-28T09:14:47;22.50;;;10.10;;
68310;SDS011;55157;51.036;17.058;2023-02-28T09:17:12;16.30;;;10.77;;
68310;SDS011;55157;51.036;17.058;2023-02-28T09:19:37;17.05;;;9.65;;
68310;SDS011;55157;51.036;17.058;2023-02-28T09:22:04;19.05;;;10.77;;
68310;SDS011;55157;51.036;17.058;2023-02-28T09:24:29;16.27;;;8.73;;
68310;SDS011;55157;51.036;17.058;2023-02-28T09:26:54;15.05;;;8.20;;
68310;SDS011;55157;51.036;17.058;2023-02-28T09:29:19;13.30;;;8.55;;
68310;SDS011;55157;51.036;17.058;2023-02-28T09:31:45;15.48;;;9.27;;
68310;SDS011;55157;51.036;17.058;2023-02-28T09:34:10;14.15;;;8.27;;
68310;SDS011;55157;51.036;17.058;2023-02-28T09:36:35;10.95;;;7.88;;
68310;SDS011;55157;51.036;17.058;2023-02-28T09:39:02;12.77;;;6.70;;
68310;SDS011;55157;51.036;17.058;2023-02-28T09:41:27;15.07;;;8.50;;
68310;SDS011;55157;51.036;17.058;2023-02-28T09:43:55;12.18;;;8.40;;
68310;SDS011;55157;51.036;17.058;2023-02-28T09:46:25;13.73;;;7.22;;
68310;SDS011;55157;51.036;17.058;2023-02-28T09:48:52;16.95;;;7.97;;
68310;SDS011;55157;51.036;17.058;2023-02-28T09:51:26;15.45;;;6.50;;
68310;SDS011;55157;51.036;17.058;2023-02-28T09:53:52;11.25;;;5.93;;
68310;SDS011;55157;51.036;17.058;2023-02-28T09:56:20;11.02;;;6.50;;
68310;SDS011;55157;51.036;17.058;2023-02-28T09:58:46;11.25;;;6.05;;
68310;SDS011;55157;51.036;17.058;2023-02-28T10:01:17;8.38;;;5.22;;
68310;SDS011;55157;51.036;17.058;2023-02-28T10:03:45;9.63;;;5.78;;
68310;SDS011;55157;51.036;17.058;2023-02-28T10:06:12;11.60;;;5.90;;
68310;SDS011;55157;51.036;17.058;2023-02-28T10:08:40;11.00;;;6.15;;
68310;SDS011;55157;51.036;17.058;2023-02-28T10:11:09;13.63;;;7.07;;
68310;SDS011;55157;51.036;17.058;2023-02-28T10:13:37;10.88;;;5.78;;
68310;SDS011;55157;51.036;17.058;2023-02-28T10:16:08;12.85;;;6.80;;
68310;SDS011;55157;51.036;17.058;2023-02-28T10:18:40;10.60;;;6.55;;
68310;SDS011;55157;51.036;17.058;2023-02-28T10:21:09;10.95;;;6.38;;
68310;SDS011;55157;51.036;17.058;2023-02-28T10:23:36;13.02;;;7.22;;
68310;SDS011;55157;51.036;17.058;2023-02-28T10:26:05;11.38;;;7.00;;
68310;SDS011;55157;51.036;17.058;2023-02-28T10:28:33;12.05;;;6.32;;
68310;SDS011;55157;51.036;17.058;2023-02-28T10:30:59;11.32;;;6.60;;
68310;SDS011;55157;51.036;17.058;2023-02-28T10:33:25;16.40;;;6.97;;
68310;SDS011;55157;51.036;17.058;2023-02-28T10:35:53;10.48;;;6.55;;
68310;SDS011;55157;51.036;17.058;2023-02-28T10:38:19;11.95;;;7.43;;
68310;SDS011;55157;51.036;17.058;2023-02-28T10:40:45;10.93;;;7.38;;
68310;SDS011;55157;51.036;17.058;2023-02-28T10:43:18;10.52;;;7.43;;
68310;SDS011;55157;51.036;17.058;2023-02-28T10:45:51;14.23;;;7.85;;
68310;SDS011;55157;51.036;17.058;2023-02-28T10:48:27;14.63;;;7.82;;
68310;SDS011;55157;51.036;17.058;2023-02-28T10:50:54;16.70;;;8.07;;
68310;SDS011;55157;51.036;17.058;2023-02-28T10:53:25;13.65;;;7.05;;
68310;SDS011;55157;51.036;17.058;2023-02-28T10:55:56;11.07;;;6.40;;
68310;SDS011;55157;51.036;17.058;2023-02-28T10:58:22;15.63;;;7.00;;
68310;SDS011;55157;51.036;17.058;2023-02-28T11:00:48;11.13;;;6.47;;
68310;SDS011;55157;51.036;17.058;2023-02-28T11:03:22;10.75;;;7.00;;
68310;SDS011;55157;51.036;17.058;2023-02-28T11:05:49;10.77;;;6.47;;
68310;SDS011;55157;51.036;17.058;2023-02-28T11:08:15;9.77;;;6.45;;
68310;SDS011;55157;51.036;17.058;2023-02-28T11:10:44;14.80;;;6.15;;
68310;SDS011;55157;51.036;17.058;2023-02-28T11:13:13;19.05;;;8.05;;
68310;SDS011;55157;51.036;17.058;2023-02-28T11:15:40;10.63;;;6.20;;
68310;SDS011;55157;51.036;17.058;2023-02-28T11:18:06;11.05;;;6.30;;
68310;SDS011;55157;51.036;17.058;2023-02-28T11:20:40;14.32;;;6.13;;
68310;SDS011;55157;51.036;17.058;2023-02-28T11:23:10;14.23;;;6.85;;
68310;SDS011;55157;51.036;17.058;2023-02-28T11:25:37;14.57;;;6.32;;
68310;SDS011;55157;51.036;17.058;2023-02-28T11:28:03;12.07;;;6.53;;
68310;SDS011;55157;51.036;17.058;2023-02-28T11:30:33;14.55;;;6.82;;
68310;SDS011;55157;51.036;17.058;2023-02-28T11:32:58;10.07;;;6.72;;
68310;SDS011;55157;51.036;17.058;2023-02-28T11:35:24;13.70;;;6.28;;
68310;SDS011;55157;51.036;17.058;2023-02-28T11:37:51;11.02;;;7.65;;
68310;SDS011;55157;51.036;17.058;2023-02-28T11:40:18;15.30;;;7.10;;
68310;SDS011;55157;51.036;17.058;2023-02-28T11:42:50;14.93;;;6.38;;
68310;SDS011;55157;51.036;17.058;2023-02-28T11:45:36;12.68;;;7.70;;
68310;SDS011;55157;51.036;17.058;2023-02-28T11:48:04;11.75;;;6.63;;
68310;SDS011;55157;51.036;17.058;2023-02-28T11:50:42;12.30;;;7.20;;
68310;SDS011;55157;51.036;17.058;2023-02-28T11:53:14;14.60;;;7.35;;
68310;SDS011;55157;51.036;17.058;2023-02-28T11:55:43;11.70;;;7.10;;
68310;SDS011;55157;51.036;17.058;2023-02-28T11:58:19;10.25;;;6.88;;
68310;SDS011;55157;51.036;17.058;2023-02-28T12:01:00;13.43;;;8.27;;
68310;SDS011;55157;51.036;17.058;2023-02-28T12:03:27;13.68;;;7.53;;
68310;SDS011;55157;51.036;17.058;2023-02-28T12:05:57;10.57;;;7.60;;
68310;SDS011;55157;51.036;17.058;2023-02-28T12:08:26;17.17;;;7.70;;
68310;SDS011;55157;51.036;17.058;2023-02-28T12:11:00;17.73;;;8.27;;
68310;SDS011;55157;51.036;17.058;2023-02-28T12:13:28;14.55;;;8.18;;
68310;SDS011;55157;51.036;17.058;2023-02-28T12:16:10;13.95;;;8.02;;
68310;SDS011;55157;51.036;17.058;2023-02-28T12:18:42;12.43;;;7.30;;
68310;SDS011;55157;51.036;17.058;2023-02-28T12:21:14;19.95;;;8.25;;
68310;SDS011;55157;51.036;17.058;2023-02-28T12:23:46;15.95;;;7.22;;
68310;SDS011;55157;51.036;17.058;2023-02-28T12:26:17;16.75;;;8.45;;
68310;SDS011;55157;51.036;17.058;2023-02-28T12:28:46;12.00;;;7.15;;
68310;SDS011;55157;51.036;17.058;2023-02-28T12:31:14;18.80;;;7.57;;
68310;SDS011;55157;51.036;17.058;2023-02-28T12:33:42;11.98;;;7.88;;
68310;SDS011;55157;51.036;17.058;2023-02-28T12:36:11;10.00;;;6.80;;
68310;SDS011;55157;51.036;17.058;2023-02-28T12:38:38;11.27;;;7.20;;
68310;SDS011;55157;51.036;17.058;2023-02-28T12:41:05;12.80;;;8.10;;
68310;SDS011;55157;51.036;17.058;2023-02-28T12:43:37;14.93;;;7.55;;
68310;SDS011;55157;51.036;17.058;2023-02-28T12:46:05;29.00;;;9.82;;
68310;SDS011;55157;51.036;17.058;2023-02-28T12:48:36;12.85;;;7.20;;
68310;SDS011;55157;51.036;17.058;2023-02-28T12:51:02;14.65;;;7.72;;
68310;SDS011;55157;51.036;17.058;2023-02-28T12:53:30;15.82;;;7.70;;
68310;SDS011;55157;51.036;17.058;2023-02-28T12:56:01;17.30;;;8.68;;
68310;SDS011;55157;51.036;17.058;2023-02-28T12:58:33;15.02;;;8.82;;
68310;SDS011;55157;51.036;17.058;2023-02-28T13:01:12;16.17;;;7.95;;
68310;SDS011;55157;51.036;17.058;2023-02-28T13:04:04;19.95;;;9.48;;
68310;SDS011;55157;51.036;17.058;2023-02-28T13:06:40;16.35;;;8.90;;
68310;SDS011;55157;51.036;17.058;2023-02-28T13:09:10;23.35;;;9.73;;
68310;SDS011;55157;51.036;17.058;2023-02-28T13:11:40;21.40;;;10.45;;
68310;SDS011;55157;51.036;17.058;2023-02-28T13:14:06;17.52;;;10.00;;
68310;SDS011;55157;51.036;17.058;2023-02-28T13:19:29;17.73;;;9.65;;
68310;SDS011;55157;51.036;17.058;2023-02-28T13:21:55;17.35;;;9.90;;
68310;SDS011;55157;51.036;17.058;2023-02-28T13:24:38;20.80;;;10.35;;
68310;SDS011;55157;51.036;17.058;2023-02-28T13:27:11;19.20;;;10.73;;
68310;SDS011;55157;51.036;17.058;2023-02-28T13:29:44;20.27;;;10.70;;
68310;SDS011;55157;51.036;17.058;2023-02-28T13:38:01;20.40;;;11.23;;
68310;SDS011;55157;51.036;17.058;2023-02-28T13:40:34;16.17;;;10.43;;
68310;SDS011;55157;51.036;17.058;2023-02-28T13:42:59;22.48;;;11.57;;
68310;SDS011;55157;51.036;17.058;2023-02-28T13:45:25;27.85;;;12.15;;
68310;SDS011;55157;51.036;17.058;2023-02-28T13:47:51;21.00;;;10.45;;
68310;SDS011;55157;51.036;17.058;2023-02-28T13:50:21;15.55;;;10.02;;
68310;SDS011;55157;51.036;17.058;2023-02-28T13:52:48;24.40;;;10.85;;
68310;SDS011;55157;51.036;17.058;2023-02-28T13:55:26;20.05;;;11.27;;
68310;SDS011;55157;51.036;17.058;2023-02-28T14:00:36;24.60;;;11.77;;
68310;SDS011;55157;51.036;17.058;2023-02-28T14:03:07;19.00;;;11.27;;
68310;SDS011;55157;51.036;17.058;2023-02-28T14:05:36;26.23;;;12.18;;
68310;SDS011;55157;51.036;17.058;2023-02-28T14:08:04;20.92;;;11.52;;
68310;SDS011;55157;51.036;17.058;2023-02-28T14:10:32;26.58;;;12.50;;
68310;SDS011;55157;51.036;17.058;2023-02-28T14:12:59;21.33;;;11.73;;
68310;SDS011;55157;51.036;17.058;2023-02-28T14:15:26;22.05;;;11.77;;
68310;SDS011;55157;51.036;17.058;2023-02-28T14:17:51;21.67;;;11.95;;
68310;SDS011;55157;51.036;17.058;2023-02-28T14:20:17;28.38;;;13.20;;
68310;SDS011;55157;51.036;17.058;2023-02-28T14:22:47;20.48;;;10.80;;
68310;SDS011;55157;51.036;17.058;2023-02-28T14:25:18;29.50;;;14.85;;
68310;SDS011;55157;51.036;17.058;2023-02-28T14:27:49;29.55;;;14.63;;
68310;SDS011;55157;51.036;17.058;2023-02-28T14:30:19;27.58;;;15.45;;
68310;SDS011;55157;51.036;17.058;2023-02-28T14:32:51;30.73;;;15.30;;
68310;SDS011;55157;51.036;17.058;2023-02-28T14:35:24;26.60;;;15.45;;